Terminal Aerodrome Forecast
Issued by NWS Des Moines, IA

Home | Current Version | Previous Version | Text Only | Print | Product List | Glossary On
Versions: 1 2 3 4 5 6 7 8 9 10 11 12 13 14 15 16
000
FTUS43 KDMX 231733
TAFALO
TAF
KALO 231733Z 2318/2418 14017G25KT P6SM SCT050 OVC100
     FM232000 14020G28KT P6SM SHRA BKN060 BKN100
     FM240800 12018G28KT P6SM TSRA SCT020CB OVC060
     FM241000 12019G28KT 5SM TSRA BKN012CB OVC020
     FM241400 14011G18KT 5SM SHRA SCT008 OVC015=

USA.gov is the U.S. government's official web portal to all federal, state and local government web resources and services.